Time;durP1;ratioP1;P1;durP2;ratioP2;P2;SDS_P1;SDS_P2;PMS_P1;PMS_P2;Temp;Humidity;BMP_temperature;BMP_pressure;BME280_temperature;BME280_humidity;BME280_pressure;Samples;Min_cycle;Max_cycle;Signal;HPM_P1;HPM_P2
2022/08/25 00:01:13;;;;;;;8.40;3.80;;;;;;;;;;5042451;28;20223;-77
2022/08/25 00:03:41;;;;;;;12.57;3.90;;;;;;;;;;5039400;28;20230;-76
2022/08/25 00:06:13;;;;;;;5.00;3.23;;;;;;;;;;5042970;28;20708;-76
2022/08/25 00:08:43;;;;;;;4.27;3.40;;;;;;;;;;5048557;28;20211;-76
2022/08/25 00:11:15;;;;;;;4.60;3.50;;;;;;;;;;5046848;28;20225;-77
2022/08/25 00:13:44;;;;;;;6.57;3.50;;;;;;;;;;5045722;28;20219;-77
2022/08/25 00:16:12;;;;;;;6.00;3.70;;;;;;;;;;5047333;28;20238;-77
2022/08/25 00:18:40;;;;;;;6.83;3.67;;;;;;;;;;5045442;28;20214;-76
2022/08/25 00:21:10;;;;;;;7.40;3.50;;;;;;;;;;5049029;28;20234;-76
2022/08/25 00:23:38;;;;;;;8.03;3.73;;;;;;;;;;5052207;28;20215;-77
2022/08/25 00:26:08;;;;;;;11.93;3.70;;;;;;;;;;5042665;28;20210;-77
2022/08/25 00:28:36;;;;;;;6.70;3.60;;;;;;;;;;5048624;28;20230;-77
2022/08/25 00:31:10;;;;;;;4.87;3.47;;;;;;;;;;5050257;28;20242;-77
2022/08/25 00:33:37;;;;;;;5.37;3.87;;;;;;;;;;5047580;28;20299;-78
2022/08/25 00:36:11;;;;;;;6.87;3.57;;;;;;;;;;5048737;28;20211;-77
2022/08/25 00:38:38;;;;;;;9.70;3.80;;;;;;;;;;5046794;28;20227;-77
2022/08/25 00:41:09;;;;;;;5.83;3.63;;;;;;;;;;5047587;28;20237;-76
2022/08/25 00:43:45;;;;;;;7.80;3.70;;;;;;;;;;5047745;28;20215;-77
2022/08/25 00:46:13;;;;;;;6.07;3.60;;;;;;;;;;5053105;28;20199;-78
2022/08/25 00:48:42;;;;;;;7.13;3.47;;;;;;;;;;5051175;28;20215;-77
2022/08/25 00:51:12;;;;;;;6.30;3.60;;;;;;;;;;5050961;28;20717;-78
2022/08/25 00:53:47;;;;;;;5.33;3.63;;;;;;;;;;5049458;28;20213;-77
2022/08/25 00:56:17;;;;;;;6.40;4.00;;;;;;;;;;5052353;28;20299;-77
2022/08/25 00:58:44;;;;;;;8.23;3.80;;;;;;;;;;5051024;28;20616;-76
2022/08/25 01:01:18;;;;;;;7.83;4.00;;;;;;;;;;5050318;28;20298;-77
2022/08/25 01:03:48;;;;;;;6.13;4.03;;;;;;;;;;5047528;28;20218;-77
2022/08/25 01:06:15;;;;;;;6.47;4.20;;;;;;;;;;5049400;28;20218;-77
2022/08/25 01:08:43;;;;;;;8.63;4.17;;;;;;;;;;5050616;28;20291;-77
2022/08/25 01:11:14;;;;;;;7.43;4.30;;;;;;;;;;5050272;28;20286;-76
2022/08/25 01:13:48;;;;;;;8.53;3.97;;;;;;;;;;5049351;28;20666;-76
2022/08/25 01:16:16;;;;;;;9.83;3.83;;;;;;;;;;5048289;28;20696;-77
2022/08/25 01:18:46;;;;;;;4.97;3.70;;;;;;;;;;5050828;28;20231;-76
2022/08/25 01:21:15;;;;;;;5.93;4.23;;;;;;;;;;5045467;28;20269;-75
2022/08/25 01:23:43;;;;;;;5.57;4.07;;;;;;;;;;5048794;28;20208;-76
2022/08/25 01:26:11;;;;;;;8.80;4.10;;;;;;;;;;5050435;28;20211;-77
2022/08/25 01:29:19;;;;;;;6.87;3.90;;;;;;;;;;5046504;28;20223;-76
2022/08/25 01:31:29;;;;;;;7.70;4.00;;;;;;;;;;5051407;28;20315;-77
2022/08/25 01:33:57;;;;;;;7.30;3.97;;;;;;;;;;5045899;28;20614;-76
2022/08/25 01:36:27;;;;;;;6.83;4.40;;;;;;;;;;5050747;28;20207;-76
2022/08/25 01:38:59;;;;;;;9.40;4.77;;;;;;;;;;5052562;28;20603;-76
2022/08/25 01:41:31;;;;;;;7.80;4.27;;;;;;;;;;5045115;28;20251;-77
2022/08/25 01:43:59;;;;;;;6.70;4.20;;;;;;;;;;5050758;28;20199;-77
2022/08/25 01:46:27;;;;;;;10.23;3.97;;;;;;;;;;5049376;28;20670;-76
2022/08/25 01:48:55;;;;;;;7.73;4.33;;;;;;;;;;5048460;28;20231;-76
2022/08/25 01:51:25;;;;;;;5.63;4.13;;;;;;;;;;5047964;28;20288;-76
2022/08/25 01:53:54;;;;;;;10.00;4.50;;;;;;;;;;5046402;28;20208;-78
2022/08/25 01:56:22;;;;;;;11.87;4.83;;;;;;;;;;5045211;28;20285;-76
2022/08/25 01:58:50;;;;;;;7.40;4.27;;;;;;;;;;5044435;28;20231;-76
2022/08/25 02:01:19;;;;;;;10.03;4.13;;;;;;;;;;5048107;28;20227;-77
2022/08/25 02:03:50;;;;;;;7.17;4.33;;;;;;;;;;5046726;28;20243;-75
2022/08/25 02:06:19;;;;;;;7.73;4.27;;;;;;;;;;5051824;28;20318;-76
2022/08/25 02:08:47;;;;;;;6.87;4.17;;;;;;;;;;5049825;28;20645;-77
2022/08/25 02:11:16;;;;;;;7.20;4.20;;;;;;;;;;5045495;28;20223;-77
2022/08/25 02:13:44;;;;;;;9.77;4.60;;;;;;;;;;5045161;28;20196;-77
2022/08/25 02:16:19;;;;;;;9.67;4.67;;;;;;;;;;5049663;28;20212;-77
2022/08/25 02:18:55;;;;;;;8.40;4.30;;;;;;;;;;5051125;28;20219;-77
2022/08/25 02:21:29;;;;;;;10.27;4.20;;;;;;;;;;5047430;28;20234;-76
2022/08/25 02:23:57;;;;;;;6.50;4.20;;;;;;;;;;5046480;28;20204;-76
2022/08/25 02:26:26;;;;;;;12.70;4.40;;;;;;;;;;5057863;28;20198;-75
2022/08/25 02:28:56;;;;;;;7.47;4.43;;;;;;;;;;5058949;28;20257;-77
2022/08/25 02:31:25;;;;;;;9.10;4.07;;;;;;;;;;5053021;28;20235;-76
2022/08/25 02:33:54;;;;;;;7.47;4.30;;;;;;;;;;5047270;28;20576;-76
2022/08/25 02:36:23;;;;;;;9.00;4.40;;;;;;;;;;5054154;28;20553;-76
2022/08/25 02:38:51;;;;;;;9.63;4.43;;;;;;;;;;5051950;28;20705;-76
2022/08/25 02:41:22;;;;;;;5.83;4.10;;;;;;;;;;5043130;28;20315;-76
2022/08/25 02:43:55;;;;;;;10.20;4.63;;;;;;;;;;5048063;28;20253;-77
2022/08/25 02:46:24;;;;;;;8.47;4.83;;;;;;;;;;5046985;28;20218;-75
2022/08/25 02:48:55;;;;;;;9.60;4.27;;;;;;;;;;5045189;28;20213;-76
2022/08/25 02:51:27;;;;;;;7.63;4.60;;;;;;;;;;5048188;28;20312;-76
2022/08/25 02:53:56;;;;;;;8.93;4.90;;;;;;;;;;5053770;28;20698;-77
2022/08/25 02:56:30;;;;;;;7.07;4.87;;;;;;;;;;5049751;28;20549;-76
2022/08/25 03:01:49;;;;;;;6.70;4.47;;;;;;;;;;5052614;28;20231;-75
2022/08/25 03:04:17;;;;;;;8.80;5.07;;;;;;;;;;5047700;28;20231;-76
2022/08/25 03:06:44;;;;;;;7.30;5.07;;;;;;;;;;5044900;28;20292;-77
2022/08/25 03:09:12;;;;;;;7.50;4.67;;;;;;;;;;5049104;28;20207;-77
2022/08/25 03:11:39;;;;;;;14.83;5.30;;;;;;;;;;5049332;28;20637;-76
2022/08/25 03:14:09;;;;;;;10.93;4.83;;;;;;;;;;5048641;28;20245;-77
2022/08/25 03:16:37;;;;;;;9.17;5.10;;;;;;;;;;5048073;28;20207;-75
2022/08/25 03:19:04;;;;;;;7.07;4.70;;;;;;;;;;5050999;28;20550;-76
2022/08/25 03:21:32;;;;;;;11.67;5.07;;;;;;;;;;5050019;28;20223;-77
2022/08/25 03:24:03;;;;;;;12.70;5.20;;;;;;;;;;5052585;28;20206;-77
2022/08/25 03:29:18;;;;;;;10.53;4.97;;;;;;;;;;5043795;28;20229;-76
2022/08/25 03:31:50;;;;;;;7.73;4.63;;;;;;;;;;5051915;28;20712;-77
2022/08/25 03:34:18;;;;;;;7.47;5.10;;;;;;;;;;5045067;28;20294;-77
2022/08/25 03:36:46;;;;;;;8.77;5.07;;;;;;;;;;5045490;28;20581;-77
2022/08/25 03:39:16;;;;;;;13.63;5.90;;;;;;;;;;5044554;28;20223;-76
2022/08/25 03:41:44;;;;;;;8.30;4.97;;;;;;;;;;5050299;28;20234;-77
2022/08/25 03:44:12;;;;;;;7.90;4.83;;;;;;;;;;5047204;28;20194;-77
2022/08/25 03:46:42;;;;;;;8.00;5.03;;;;;;;;;;5047259;28;20213;-78
2022/08/25 03:49:13;;;;;;;11.47;5.23;;;;;;;;;;5049399;28;20278;-77
2022/08/25 03:51:50;;;;;;;10.70;5.17;;;;;;;;;;5044001;28;20748;-76
2022/08/25 03:54:22;;;;;;;11.03;5.20;;;;;;;;;;5047632;28;20209;-76
2022/08/25 03:56:50;;;;;;;17.17;4.93;;;;;;;;;;5051070;28;20200;-77
2022/08/25 03:59:19;;;;;;;9.17;5.23;;;;;;;;;;5048827;28;20253;-77
2022/08/25 04:01:48;;;;;;;9.07;5.53;;;;;;;;;;5048854;28;20285;-77
2022/08/25 04:04:16;;;;;;;10.03;5.97;;;;;;;;;;5048347;28;20211;-76
2022/08/25 04:06:45;;;;;;;11.03;5.63;;;;;;;;;;5053234;28;20272;-76
2022/08/25 04:09:13;;;;;;;15.77;5.37;;;;;;;;;;5048747;28;20264;-77
2022/08/25 04:11:41;;;;;;;11.30;6.10;;;;;;;;;;5051560;28;20649;-76
2022/08/25 04:14:14;;;;;;;9.27;5.20;;;;;;;;;;5048983;28;20690;-76
2022/08/25 04:16:42;;;;;;;11.17;5.30;;;;;;;;;;5049402;28;20207;-77
2022/08/25 04:19:12;;;;;;;10.63;5.63;;;;;;;;;;5050416;28;20715;-77
2022/08/25 04:21:40;;;;;;;10.60;6.07;;;;;;;;;;5048814;28;20234;-77
2022/08/25 04:24:08;;;;;;;10.20;5.73;;;;;;;;;;5051684;28;20741;-77
2022/08/25 04:26:46;;;;;;;9.13;5.63;;;;;;;;;;5049568;28;20207;-76
2022/08/25 04:29:15;;;;;;;8.50;5.70;;;;;;;;;;5052394;28;20277;-76
2022/08/25 04:31:45;;;;;;;7.80;5.67;;;;;;;;;;5053224;28;20227;-76
2022/08/25 04:34:14;;;;;;;8.33;4.93;;;;;;;;;;5057316;28;20206;-76
2022/08/25 04:36:42;;;;;;;12.37;5.47;;;;;;;;;;5049540;28;20230;-77
2022/08/25 04:39:10;;;;;;;15.27;6.07;;;;;;;;;;5049117;28;20223;-76
2022/08/25 04:41:37;;;;;;;8.73;5.97;;;;;;;;;;5051290;28;20242;-77
2022/08/25 04:44:05;;;;;;;7.80;5.10;;;;;;;;;;5051430;28;20215;-78
2022/08/25 04:46:33;;;;;;;14.00;5.20;;;;;;;;;;5048161;28;20214;-77
2022/08/25 04:49:00;;;;;;;8.13;5.67;;;;;;;;;;5045196;28;20204;-77
2022/08/25 04:51:30;;;;;;;13.87;5.83;;;;;;;;;;5053074;28;20229;-76
2022/08/25 04:53:59;;;;;;;20.50;6.67;;;;;;;;;;5050091;28;20744;-77
2022/08/25 04:56:27;;;;;;;12.67;5.80;;;;;;;;;;5047133;28;20658;-77
2022/08/25 04:58:55;;;;;;;15.43;5.80;;;;;;;;;;5050117;28;20720;-77
2022/08/25 05:01:24;;;;;;;16.30;5.97;;;;;;;;;;5049299;28;20234;-77
2022/08/25 05:03:55;;;;;;;17.93;5.60;;;;;;;;;;5050705;28;20283;-78
2022/08/25 05:06:23;;;;;;;20.40;5.87;;;;;;;;;;5051215;28;20203;-77
2022/08/25 05:08:51;;;;;;;18.33;5.53;;;;;;;;;;5051113;28;20223;-77
2022/08/25 05:11:20;;;;;;;28.67;5.97;;;;;;;;;;5052373;28;20225;-76
2022/08/25 05:13:47;;;;;;;19.13;6.43;;;;;;;;;;5046745;28;20685;-76
2022/08/25 05:16:15;;;;;;;19.87;6.23;;;;;;;;;;5046900;28;20199;-77
2022/08/25 05:18:42;;;;;;;20.17;5.93;;;;;;;;;;5049103;28;20222;-78
2022/08/25 05:21:11;;;;;;;21.63;5.80;;;;;;;;;;5051940;28;20258;-78
2022/08/25 05:23:38;;;;;;;13.90;5.43;;;;;;;;;;5048344;28;20737;-77
2022/08/25 05:26:09;;;;;;;13.83;5.20;;;;;;;;;;5049537;28;20645;-78
2022/08/25 05:28:36;;;;;;;11.57;5.20;;;;;;;;;;5046624;28;20268;-78
2022/08/25 05:31:05;;;;;;;9.90;4.73;;;;;;;;;;5045626;28;20231;-78
2022/08/25 05:33:32;;;;;;;6.67;4.40;;;;;;;;;;5046475;28;20210;-77
2022/08/25 05:36:02;;;;;;;8.23;4.47;;;;;;;;;;5044077;28;20295;-78
2022/08/25 05:38:32;;;;;;;12.07;4.40;;;;;;;;;;5047741;28;20226;-77
2022/08/25 05:41:03;;;;;;;9.20;4.37;;;;;;;;;;5046192;28;20230;-78
2022/08/25 05:43:32;;;;;;;9.70;4.50;;;;;;;;;;5046415;28;20290;-78
2022/08/25 05:46:00;;;;;;;10.97;4.27;;;;;;;;;;5043714;28;20298;-78
2022/08/25 05:48:27;;;;;;;14.23;4.17;;;;;;;;;;5044136;28;20565;-78
2022/08/25 05:50:55;;;;;;;16.20;4.60;;;;;;;;;;5050039;28;20313;-78
2022/08/25 05:53:26;;;;;;;12.13;4.23;;;;;;;;;;5048308;28;20299;-78
2022/08/25 05:55:54;;;;;;;16.40;4.13;;;;;;;;;;5049954;28;20574;-78
2022/08/25 05:58:24;;;;;;;21.00;4.50;;;;;;;;;;5055268;28;20639;-77
2022/08/25 06:00:54;;;;;;;7.40;4.30;;;;;;;;;;5051288;28;20227;-78
2022/08/25 06:03:22;;;;;;;12.07;4.40;;;;;;;;;;5047461;28;20294;-78
2022/08/25 06:05:49;;;;;;;8.30;4.90;;;;;;;;;;5047616;28;20226;-78
2022/08/25 06:08:16;;;;;;;6.97;4.20;;;;;;;;;;5045825;28;20269;-77
2022/08/25 06:10:44;;;;;;;15.27;5.20;;;;;;;;;;5044106;28;20306;-78
2022/08/25 06:13:11;;;;;;;18.00;4.40;;;;;;;;;;5051311;28;20297;-78
2022/08/25 06:15:38;;;;;;;12.60;5.20;;;;;;;;;;5054169;28;20309;-78
2022/08/25 06:18:06;;;;;;;10.70;4.70;;;;;;;;;;5055199;28;20677;-78
2022/08/25 06:20:34;;;;;;;8.40;4.47;;;;;;;;;;5050610;28;20281;-78
2022/08/25 06:23:02;;;;;;;17.00;4.53;;;;;;;;;;5049255;28;20217;-78
2022/08/25 06:25:32;;;;;;;8.23;4.23;;;;;;;;;;5046576;28;20260;-78
2022/08/25 06:27:59;;;;;;;10.67;4.40;;;;;;;;;;5047817;28;20206;-78
2022/08/25 06:30:26;;;;;;;10.33;4.83;;;;;;;;;;5045410;28;20574;-77
2022/08/25 06:32:54;;;;;;;7.57;4.10;;;;;;;;;;5049939;28;20745;-78
2022/08/25 06:35:22;;;;;;;7.90;4.23;;;;;;;;;;5047781;28;20213;-77
2022/08/25 06:37:50;;;;;;;10.03;4.40;;;;;;;;;;5049146;28;20276;-78
2022/08/25 06:40:17;;;;;;;11.27;4.70;;;;;;;;;;5045889;28;20286;-77
2022/08/25 06:42:48;;;;;;;11.57;4.30;;;;;;;;;;5043529;28;20222;-78
2022/08/25 06:45:15;;;;;;;9.53;4.23;;;;;;;;;;5045472;28;20203;-77
2022/08/25 06:47:42;;;;;;;9.07;3.93;;;;;;;;;;5045486;28;20225;-78
2022/08/25 06:50:10;;;;;;;7.70;4.03;;;;;;;;;;5046338;28;20196;-78
2022/08/25 06:52:38;;;;;;;9.50;4.17;;;;;;;;;;5046088;28;20232;-78
2022/08/25 06:55:06;;;;;;;6.67;3.80;;;;;;;;;;5046351;28;20203;-78
2022/08/25 06:57:34;;;;;;;7.57;4.27;;;;;;;;;;5042473;28;20214;-78
2022/08/25 07:00:03;;;;;;;8.60;4.27;;;;;;;;;;5047041;28;20246;-78
2022/08/25 07:02:30;;;;;;;5.47;3.73;;;;;;;;;;5049774;28;20713;-78
2022/08/25 07:04:58;;;;;;;9.30;4.23;;;;;;;;;;5045034;28;20213;-78
2022/08/25 07:07:25;;;;;;;8.50;3.90;;;;;;;;;;5053607;28;20298;-78
2022/08/25 07:09:53;;;;;;;9.73;4.20;;;;;;;;;;5044609;28;20214;-78
2022/08/25 07:12:23;;;;;;;11.70;4.23;;;;;;;;;;5046202;28;20247;-77
2022/08/25 07:14:52;;;;;;;6.00;3.70;;;;;;;;;;5048956;28;20209;-78
2022/08/25 07:17:20;;;;;;;5.90;4.00;;;;;;;;;;5044874;28;20564;-78
2022/08/25 07:19:47;;;;;;;7.03;3.77;;;;;;;;;;5047747;28;20312;-78
2022/08/25 07:22:14;;;;;;;7.97;3.90;;;;;;;;;;5044922;28;20714;-78
2022/08/25 07:24:42;;;;;;;9.33;3.73;;;;;;;;;;5046843;28;20644;-77
2022/08/25 07:27:10;;;;;;;10.90;3.90;;;;;;;;;;5041463;28;20199;-77
2022/08/25 07:29:38;;;;;;;9.33;3.50;;;;;;;;;;5045114;28;20297;-77
2022/08/25 07:32:06;;;;;;;11.32;3.60;;;;;;;;;;5044051;28;20235;-77
2022/08/25 07:37:20;;;;;;;5.85;3.58;;;;;;;;;;5044371;28;20198;-77
2022/08/25 07:39:47;;;;;;;6.30;3.30;;;;;;;;;;5043406;28;20230;-77
2022/08/25 07:42:16;;;;;;;6.88;3.63;;;;;;;;;;5045321;28;20606;-77
2022/08/25 07:44:43;;;;;;;6.07;4.00;;;;;;;;;;5050588;28;20271;-77
2022/08/25 07:47:10;;;;;;;7.45;3.45;;;;;;;;;;5047261;28;20609;-77
2022/08/25 07:49:38;;;;;;;14.48;4.30;;;;;;;;;;5048293;28;20234;-77
2022/08/25 07:52:05;;;;;;;8.75;4.80;;;;;;;;;;5041825;28;20222;-76
2022/08/25 07:54:32;;;;;;;7.70;4.28;;;;;;;;;;5042997;28;20704;-77
2022/08/25 07:56:59;;;;;;;14.48;4.18;;;;;;;;;;5039353;28;20208;-77
2022/08/25 07:59:28;;;;;;;11.35;4.45;;;;;;;;;;5040844;28;20215;-77
2022/08/25 08:01:55;;;;;;;12.15;4.43;;;;;;;;;;5046254;28;20248;-77
2022/08/25 08:04:22;;;;;;;9.68;4.60;;;;;;;;;;5047939;28;20274;-77
2022/08/25 08:06:49;;;;;;;8.85;4.32;;;;;;;;;;5038018;28;20246;-77
2022/08/25 08:09:17;;;;;;;12.05;4.80;;;;;;;;;;5042624;28;20209;-78
2022/08/25 08:11:44;;;;;;;12.35;4.55;;;;;;;;;;5044492;28;20751;-77
2022/08/25 08:14:12;;;;;;;11.48;4.60;;;;;;;;;;5043525;28;20683;-77
2022/08/25 08:16:40;;;;;;;8.00;4.53;;;;;;;;;;5045370;28;20300;-77
2022/08/25 08:19:08;;;;;;;10.43;4.45;;;;;;;;;;5047102;28;20230;-77
2022/08/25 08:21:36;;;;;;;15.38;5.47;;;;;;;;;;5045265;28;20221;-77
2022/08/25 08:24:04;;;;;;;13.13;4.32;;;;;;;;;;5046650;28;20498;-77
2022/08/25 08:26:31;;;;;;;9.70;4.20;;;;;;;;;;5042750;28;20267;-78
2022/08/25 08:28:59;;;;;;;9.40;4.70;;;;;;;;;;5041795;28;20210;-77
2022/08/25 08:31:29;;;;;;;11.80;4.40;;;;;;;;;;5041954;28;20749;-76
2022/08/25 08:33:57;;;;;;;8.82;4.35;;;;;;;;;;5043933;28;20236;-77
2022/08/25 08:36:26;;;;;;;10.38;4.70;;;;;;;;;;5042749;28;20200;-77
2022/08/25 08:38:53;;;;;;;11.60;5.18;;;;;;;;;;5046493;28;20309;-77
2022/08/25 08:44:28;;;;;;;8.50;5.37;;;;;;;;;;5042660;28;20721;-77
2022/08/25 08:47:00;;;;;;;8.77;4.80;;;;;;;;;;5047612;28;20195;-77
2022/08/25 08:49:32;;;;;;;8.90;5.13;;;;;;;;;;5037695;28;20282;-77
2022/08/25 08:52:01;;;;;;;10.37;5.20;;;;;;;;;;5050979;28;20734;-76
2022/08/25 08:54:31;;;;;;;11.33;5.17;;;;;;;;;;5043891;28;20509;-77
2022/08/25 08:57:05;;;;;;;9.87;5.60;;;;;;;;;;5046927;28;20693;-76
2022/08/25 08:59:40;;;;;;;8.93;5.33;;;;;;;;;;5050494;28;20227;-77
2022/08/25 09:02:13;;;;;;;9.47;5.63;;;;;;;;;;5048217;28;20234;-77
2022/08/25 09:04:44;;;;;;;7.83;4.83;;;;;;;;;;5045536;28;20214;-77
2022/08/25 09:07:12;;;;;;;15.10;5.60;;;;;;;;;;5043691;28;20669;-77
2022/08/25 09:09:41;;;;;;;7.80;4.83;;;;;;;;;;5048448;28;20697;-76
2022/08/25 09:12:13;;;;;;;10.07;5.33;;;;;;;;;;5046079;28;20224;-77
2022/08/25 09:14:46;;;;;;;10.17;5.67;;;;;;;;;;5046099;28;20250;-77
2022/08/25 09:17:20;;;;;;;11.57;5.13;;;;;;;;;;5050041;28;20669;-77
2022/08/25 09:20:05;;;;;;;11.00;5.57;;;;;;;;;;5047005;28;20215;-76
2022/08/25 09:22:41;;;;;;;7.30;4.90;;;;;;;;;;5035754;28;20227;-77
2022/08/25 09:25:14;;;;;;;9.43;5.07;;;;;;;;;;5047987;28;20206;-77
2022/08/25 09:27:47;;;;;;;9.70;5.47;;;;;;;;;;5046169;28;20294;-76
2022/08/25 09:30:16;;;;;;;7.93;5.00;;;;;;;;;;5044282;28;20245;-76
2022/08/25 09:32:45;;;;;;;10.47;4.63;;;;;;;;;;5044881;28;20207;-77
2022/08/25 09:35:16;;;;;;;10.93;5.50;;;;;;;;;;5043882;28;20207;-77
2022/08/25 09:37:55;;;;;;;8.43;5.10;;;;;;;;;;5044202;28;20230;-77
2022/08/25 09:40:23;;;;;;;10.83;4.87;;;;;;;;;;5044873;28;20752;-77
2022/08/25 09:42:54;;;;;;;9.00;5.13;;;;;;;;;;5046708;28;20214;-76
2022/08/25 09:45:32;;;;;;;8.70;4.83;;;;;;;;;;5049286;28;20205;-77
2022/08/25 09:48:00;;;;;;;10.10;5.40;;;;;;;;;;5044541;28;20215;-77
2022/08/25 09:50:30;;;;;;;10.13;4.90;;;;;;;;;;5052364;28;20203;-78
2022/08/25 09:53:11;;;;;;;11.40;5.70;;;;;;;;;;5056777;28;20203;-76
2022/08/25 09:55:39;;;;;;;14.03;5.50;;;;;;;;;;5046893;28;20209;-78
2022/08/25 09:58:15;;;;;;;10.77;5.33;;;;;;;;;;5051081;28;20203;-77
2022/08/25 10:00:42;;;;;;;8.30;5.33;;;;;;;;;;5050573;28;20222;-77
2022/08/25 10:03:14;;;;;;;9.10;5.20;;;;;;;;;;5047327;28;20624;-77
2022/08/25 10:05:59;;;;;;;11.23;4.73;;;;;;;;;;5047675;28;20593;-78
2022/08/25 10:08:31;;;;;;;10.43;4.93;;;;;;;;;;5043548;28;20669;-77
2022/08/25 10:10:59;;;;;;;9.03;5.10;;;;;;;;;;5051397;28;20591;-78
2022/08/25 10:13:37;;;;;;;8.43;5.60;;;;;;;;;;5045674;28;20203;-77
2022/08/25 10:16:06;;;;;;;10.77;5.27;;;;;;;;;;5045053;28;20242;-77
2022/08/25 10:18:34;;;;;;;8.97;5.17;;;;;;;;;;5045519;28;20295;-76
2022/08/25 10:21:05;;;;;;;16.43;5.83;;;;;;;;;;5048860;28;20635;-77
2022/08/25 10:23:37;;;;;;;9.10;5.97;;;;;;;;;;5043748;28;20210;-77
2022/08/25 10:26:09;;;;;;;8.73;5.10;;;;;;;;;;5047156;28;20582;-77
2022/08/25 10:28:44;;;;;;;7.60;4.90;;;;;;;;;;5043977;28;20207;-77
2022/08/25 10:31:20;;;;;;;10.07;5.10;;;;;;;;;;5053138;28;20237;-78
2022/08/25 10:33:55;;;;;;;8.07;5.40;;;;;;;;;;5046065;28;20233;-77
2022/08/25 10:36:25;;;;;;;8.83;5.10;;;;;;;;;;5047403;28;20289;-78
2022/08/25 10:38:56;;;;;;;8.73;4.97;;;;;;;;;;5045875;28;20565;-77
2022/08/25 10:41:34;;;;;;;5.37;4.03;;;;;;;;;;5053636;28;20262;-77
2022/08/25 10:45:41;;;;;;;9.73;5.03;;;;;;;;;;5049274;28;20258;-77
2022/08/25 10:47:00;;;;;;;7.87;4.97;;;;;;;;;;5047157;28;20633;-78
2022/08/25 10:49:31;;;;;;;11.00;4.47;;;;;;;;;;5043596;28;20195;-77
2022/08/25 10:52:01;;;;;;;10.77;5.33;;;;;;;;;;5046370;28;21071;-77
2022/08/25 10:54:49;;;;;;;9.30;5.63;;;;;;;;;;5045619;28;20290;-77
2022/08/25 10:57:22;;;;;;;8.70;5.60;;;;;;;;;;5042190;28;20301;-78
2022/08/25 10:59:59;;;;;;;10.27;5.77;;;;;;;;;;5048678;28;20215;-77
2022/08/25 11:02:45;;;;;;;8.87;5.30;;;;;;;;;;5047934;28;20232;-77
2022/08/25 11:05:17;;;;;;;12.17;5.93;;;;;;;;;;5047652;28;20980;-77
2022/08/25 11:07:50;;;;;;;8.37;4.80;;;;;;;;;;5052758;28;20210;-77
2022/08/25 11:10:22;;;;;;;8.57;5.70;;;;;;;;;;5044607;28;20705;-75
2022/08/25 11:12:53;;;;;;;8.27;5.63;;;;;;;;;;5050754;28;20242;-77
2022/08/25 11:15:24;;;;;;;10.07;5.43;;;;;;;;;;5046975;28;20291;-77
2022/08/25 11:17:54;;;;;;;9.10;5.17;;;;;;;;;;5055004;28;20206;-76
2022/08/25 11:20:23;;;;;;;9.27;5.30;;;;;;;;;;5045419;28;20288;-78
2022/08/25 11:22:58;;;;;;;9.67;5.60;;;;;;;;;;5049649;28;20294;-77
2022/08/25 11:25:28;;;;;;;11.17;5.10;;;;;;;;;;5053222;28;20218;-78
2022/08/25 11:27:59;;;;;;;9.80;5.40;;;;;;;;;;5048251;28;20572;-77
2022/08/25 11:30:27;;;;;;;9.83;5.90;;;;;;;;;;5049462;28;20211;-78
2022/08/25 11:32:56;;;;;;;8.87;5.30;;;;;;;;;;5048184;28;20241;-78
2022/08/25 11:35:27;;;;;;;12.90;5.07;;;;;;;;;;5048380;28;20205;-78
2022/08/25 11:38:01;;;;;;;10.27;5.50;;;;;;;;;;5047565;28;20331;-78
2022/08/25 11:40:35;;;;;;;9.13;5.20;;;;;;;;;;5044674;28;20227;-78
2022/08/25 11:43:10;;;;;;;11.10;4.90;;;;;;;;;;5038003;28;20226;-78
2022/08/25 11:45:50;;;;;;;11.30;5.60;;;;;;;;;;5041738;28;20279;-78
2022/08/25 11:48:22;;;;;;;7.87;5.40;;;;;;;;;;5045252;28;20290;-78
2022/08/25 11:51:00;;;;;;;7.03;5.17;;;;;;;;;;5048920;28;20292;-79
2022/08/25 11:53:29;;;;;;;9.50;4.97;;;;;;;;;;5043705;28;20291;-78
2022/08/25 11:56:01;;;;;;;8.53;5.50;;;;;;;;;;5042067;28;20225;-78
2022/08/25 11:58:33;;;;;;;11.33;5.47;;;;;;;;;;5043536;28;20200;-78
2022/08/25 12:01:01;;;;;;;13.03;5.10;;;;;;;;;;5040772;28;20241;-78
2022/08/25 12:03:46;;;;;;;8.67;5.07;;;;;;;;;;5043186;28;20567;-78
2022/08/25 12:06:18;;;;;;;13.17;5.37;;;;;;;;;;5035820;28;20226;-77
2022/08/25 12:08:50;;;;;;;13.20;5.33;;;;;;;;;;5042367;28;20212;-77
2022/08/25 12:11:34;;;;;;;12.83;5.17;;;;;;;;;;5043194;28;20309;-78
2022/08/25 12:14:16;;;;;;;7.73;5.20;;;;;;;;;;5046023;28;20696;-78
2022/08/25 12:17:00;;;;;;;11.63;5.33;;;;;;;;;;5045805;28;20204;-78
2022/08/25 12:19:29;;;;;;;10.80;5.90;;;;;;;;;;5040661;28;20683;-77
2022/08/25 12:21:57;;;;;;;9.23;5.47;;;;;;;;;;5044765;28;20229;-78
2022/08/25 12:24:38;;;;;;;10.93;5.43;;;;;;;;;;5041839;28;20211;-78
2022/08/25 12:27:06;;;;;;;10.70;5.53;;;;;;;;;;5044667;28;20287;-77
2022/08/25 12:29:40;;;;;;;9.10;5.27;;;;;;;;;;5044995;28;20217;-77
2022/08/25 12:32:26;;;;;;;9.83;5.43;;;;;;;;;;5046911;28;20229;-76
2022/08/25 12:35:20;;;;;;;9.73;5.40;;;;;;;;;;5051174;28;20209;-78
2022/08/25 12:37:54;;;;;;;10.13;5.43;;;;;;;;;;5043898;28;20737;-78
2022/08/25 12:40:24;;;;;;;10.90;5.33;;;;;;;;;;5047941;28;20823;-77
2022/08/25 12:43:00;;;;;;;11.97;5.70;;;;;;;;;;5050160;28;20306;-78
2022/08/25 12:45:34;;;;;;;15.50;5.67;;;;;;;;;;5043324;28;20233;-78
2022/08/25 12:48:20;;;;;;;11.03;5.80;;;;;;;;;;5041582;28;20338;-77
2022/08/25 12:50:49;;;;;;;13.77;5.30;;;;;;;;;;5044103;28;20229;-78
2022/08/25 12:53:20;;;;;;;7.60;5.70;;;;;;;;;;5052308;28;20202;-77
2022/08/25 12:56:04;;;;;;;10.10;5.27;;;;;;;;;;5055015;28;20201;-77
2022/08/25 12:58:35;;;;;;;8.70;5.10;;;;;;;;;;5058844;28;20215;-78
2022/08/25 13:01:13;;;;;;;9.80;5.77;;;;;;;;;;5055318;28;20254;-78
2022/08/25 13:03:50;;;;;;;8.67;5.60;;;;;;;;;;5054565;28;20807;-77
2022/08/25 13:07:04;;;;;;;9.30;5.23;;;;;;;;;;5049238;28;20198;-78
2022/08/25 13:09:49;;;;;;;12.90;5.77;;;;;;;;;;5046567;28;20261;-78
2022/08/25 13:12:42;;;;;;;9.00;5.47;;;;;;;;;;5036867;28;20306;-77
2022/08/25 13:15:18;;;;;;;8.50;5.53;;;;;;;;;;5046920;28;20202;-77
2022/08/25 13:20:44;;;;;;;9.50;5.03;;;;;;;;;;5049323;28;20228;-77
2022/08/25 13:23:17;;;;;;;8.37;5.37;;;;;;;;;;5064252;28;20292;-78
2022/08/25 13:25:52;;;;;;;8.43;5.70;;;;;;;;;;5055702;28;20290;-77
2022/08/25 13:28:29;;;;;;;7.47;5.00;;;;;;;;;;5053729;28;20199;-77
2022/08/25 13:31:02;;;;;;;9.53;5.53;;;;;;;;;;5048821;28;20236;-78
2022/08/25 13:33:35;;;;;;;7.07;5.10;;;;;;;;;;5049593;28;20670;-77
2022/08/25 13:38:57;;;;;;;9.83;5.53;;;;;;;;;;5049108;28;20200;-78
2022/08/25 13:41:26;;;;;;;10.23;5.10;;;;;;;;;;5049512;28;20227;-78
2022/08/25 13:43:54;;;;;;;10.07;5.63;;;;;;;;;;5049888;28;20269;-78
2022/08/25 13:46:23;;;;;;;10.63;5.23;;;;;;;;;;5056247;28;20210;-77
2022/08/25 13:49:02;;;;;;;9.93;5.30;;;;;;;;;;5055376;28;20257;-78
2022/08/25 13:51:30;;;;;;;9.07;5.17;;;;;;;;;;5047483;28;20222;-77
2022/08/25 13:54:00;;;;;;;8.43;5.37;;;;;;;;;;5047073;28;20328;-77
2022/08/25 13:56:31;;;;;;;8.13;5.00;;;;;;;;;;5047659;28;20198;-77
2022/08/25 13:59:04;;;;;;;8.07;4.90;;;;;;;;;;5045948;28;20199;-77
2022/08/25 14:01:33;;;;;;;7.47;5.00;;;;;;;;;;5047178;28;20265;-77
2022/08/25 14:04:18;;;;;;;7.90;5.37;;;;;;;;;;5045192;28;20297;-77
2022/08/25 14:06:47;;;;;;;9.17;5.07;;;;;;;;;;5053528;28;20211;-78
2022/08/25 14:09:17;;;;;;;10.93;5.40;;;;;;;;;;5044546;28;20301;-77
2022/08/25 14:11:50;;;;;;;7.83;4.97;;;;;;;;;;5044769;28;20745;-77
2022/08/25 14:14:30;;;;;;;7.97;5.23;;;;;;;;;;5040568;28;20289;-78
2022/08/25 14:17:05;;;;;;;9.67;4.90;;;;;;;;;;5042754;28;20207;-77
2022/08/25 14:19:32;;;;;;;7.10;4.90;;;;;;;;;;5042728;28;20620;-77
2022/08/25 14:22:07;;;;;;;8.60;4.87;;;;;;;;;;5045536;28;20242;-78
2022/08/25 14:24:39;;;;;;;10.37;5.07;;;;;;;;;;5046714;28;20237;-77
2022/08/25 14:27:18;;;;;;;10.17;4.63;;;;;;;;;;5041834;28;20763;-78
2022/08/25 14:29:48;;;;;;;9.30;5.30;;;;;;;;;;5047161;28;20206;-78
2022/08/25 14:32:27;;;;;;;9.13;4.73;;;;;;;;;;5042760;28;20234;-77
2022/08/25 14:35:07;;;;;;;6.97;4.77;;;;;;;;;;5045750;28;20202;-78
2022/08/25 14:37:36;;;;;;;7.43;4.83;;;;;;;;;;5041532;28;20206;-78
2022/08/25 14:40:12;;;;;;;11.17;5.27;;;;;;;;;;5041621;28;20206;-78
2022/08/25 14:42:39;;;;;;;10.93;4.60;;;;;;;;;;5041327;28;20229;-77
2022/08/25 14:45:10;;;;;;;9.63;5.13;;;;;;;;;;5042517;28;20210;-77
2022/08/25 14:47:39;;;;;;;8.10;4.73;;;;;;;;;;5037995;28;20202;-78
2022/08/25 14:50:16;;;;;;;8.47;4.87;;;;;;;;;;5036735;28;20205;-78
2022/08/25 14:52:51;;;;;;;8.10;4.40;;;;;;;;;;5044146;28;20209;-78
2022/08/25 14:55:18;;;;;;;7.40;4.53;;;;;;;;;;5043425;28;20586;-78
2022/08/25 14:57:46;;;;;;;5.93;4.07;;;;;;;;;;5042338;28;20199;-79
2022/08/25 15:00:13;;;;;;;7.10;4.40;;;;;;;;;;5048300;28;20201;-77
2022/08/25 15:02:44;;;;;;;7.37;4.80;;;;;;;;;;5051876;28;20223;-79
2022/08/25 15:05:12;;;;;;;8.13;5.13;;;;;;;;;;5048764;28;20300;-78
2022/08/25 15:10:25;;;;;;;9.03;4.80;;;;;;;;;;5046116;28;20198;-78
2022/08/25 15:12:53;;;;;;;6.93;4.63;;;;;;;;;;5047977;28;20209;-78
2022/08/25 15:15:20;;;;;;;8.53;4.73;;;;;;;;;;5041036;28;20202;-78
2022/08/25 15:17:48;;;;;;;8.27;4.77;;;;;;;;;;5049579;28;20205;-78
2022/08/25 15:20:15;;;;;;;14.50;4.40;;;;;;;;;;5044004;28;20202;-79